Terminal Aerodrome Forecast
Issued by NWS

Home | Current Version | Previous Version | Text Only | Print | Product List | Glossary On
Versions: 1 2 3 4 5 6 7 8 9 10 11 12
132
FTUS44 KTSA 081120
TAFXNA
TAF
KXNA 081120Z 0812/0912 30014G27KT P6SM SKC
     FM081400 32015G29KT P6SM SCT060
     FM090000 31010G18KT P6SM SCT250
     FM090900 31012KT P6SM SKC=

USA.gov is the U.S. government's official web portal to all federal, state and local government web resources and services.